createdAt,value
2018-03-06T00:00:27.809Z,42.30
2018-03-06T00:00:59.770Z,42.20
2018-03-06T00:01:32.106Z,42.40
2018-03-06T00:02:04.799Z,42.30
2018-03-06T00:02:36.744Z,42.20
2018-03-06T00:03:08.807Z,42.20
2018-03-06T00:03:40.776Z,42.30
2018-03-06T00:04:12.528Z,42.40
2018-03-06T00:04:45.230Z,42.80
2018-03-06T00:05:17.200Z,42.70
2018-03-06T00:05:49.164Z,42.20
2018-03-06T00:06:21.100Z,42.70
2018-03-06T00:06:53.097Z,42.40
2018-03-06T00:07:25.835Z,42.40
2018-03-06T00:07:57.784Z,42.40
2018-03-06T00:08:29.752Z,42.20
2018-03-06T00:09:01.696Z,42.20
2018-03-06T00:09:33.675Z,42.20
2018-03-06T00:10:05.605Z,42.10
2018-03-06T00:10:37.556Z,42.10
2018-03-06T00:11:10.264Z,42.20
2018-03-06T00:11:42.206Z,42.00
2018-03-06T00:12:14.170Z,42.30
2018-03-06T00:12:46.127Z,42.20
2018-03-06T00:13:18.065Z,42.40
2018-03-06T00:13:50.056Z,42.70
2018-03-06T00:14:22.293Z,42.50
2018-03-06T00:14:54.250Z,42.20
2018-03-06T00:15:26.206Z,42.50
2018-03-06T00:15:58.161Z,42.50
2018-03-06T00:16:30.145Z,42.50
2018-03-06T00:17:02.105Z,42.30
2018-03-06T00:17:34.037Z,42.30
2018-03-06T00:18:06.761Z,42.80
2018-03-06T00:18:38.709Z,42.80
2018-03-06T00:19:10.653Z,42.60
2018-03-06T00:19:42.609Z,42.40
2018-03-06T00:20:14.546Z,42.30
2018-03-06T00:20:46.374Z,42.40
2018-03-06T00:21:18.341Z,42.40
2018-03-06T00:21:50.308Z,42.30
2018-03-06T00:22:22.266Z,42.80
2018-03-06T00:22:54.254Z,42.70
2018-03-06T00:23:27.039Z,42.30
2018-03-06T00:23:58.983Z,42.30
2018-03-06T00:24:30.934Z,42.30
2018-03-06T00:25:02.901Z,42.00
2018-03-06T00:25:34.657Z,42.20
2018-03-06T00:26:06.678Z,42.20
2018-03-06T00:26:38.664Z,42.30
2018-03-06T00:27:10.640Z,42.40
2018-03-06T00:27:42.577Z,42.60
2018-03-06T00:28:14.526Z,42.20
2018-03-06T00:28:46.486Z,42.60
2018-03-06T00:29:18.466Z,42.00
2018-03-06T00:29:50.409Z,42.20
2018-03-06T00:30:23.126Z,42.30
2018-03-06T00:30:55.090Z,42.30
2018-03-06T00:31:27.069Z,42.20
2018-03-06T00:31:59.801Z,42.20
2018-03-06T00:32:31.741Z,42.20
2018-03-06T00:33:03.782Z,42.50
2018-03-06T00:33:35.669Z,42.80
2018-03-06T00:34:08.382Z,42.80
2018-03-06T00:34:40.396Z,42.80
2018-03-06T00:35:13.150Z,42.70
2018-03-06T00:35:45.098Z,42.60
2018-03-06T00:36:17.042Z,42.10
2018-03-06T00:36:49.028Z,42.50
2018-03-06T00:37:21.844Z,42.30
2018-03-06T00:37:53.828Z,42.30
2018-03-06T00:38:25.794Z,42.30
2018-03-06T00:38:57.740Z,42.60
2018-03-06T00:39:30.436Z,42.30
2018-03-06T00:40:02.409Z,42.30
2018-03-06T00:40:34.346Z,42.20
2018-03-06T00:41:06.292Z,42.10
2018-03-06T00:41:38.260Z,42.20
2018-03-06T00:42:10.234Z,42.10
2018-03-06T00:42:42.177Z,43.00
2018-03-06T00:43:14.145Z,42.40
2018-03-06T00:43:46.868Z,42.10
2018-03-06T00:44:18.817Z,42.10
2018-03-06T00:44:50.774Z,42.20
2018-03-06T00:45:22.760Z,42.20
2018-03-06T00:45:55.483Z,42.60
2018-03-06T00:46:27.422Z,42.50
2018-03-06T00:46:59.394Z,42.10
2018-03-06T00:47:31.338Z,41.80
2018-03-06T00:48:03.279Z,42.20
2018-03-06T00:48:35.221Z,42.20
2018-03-06T00:49:07.184Z,42.10
2018-03-06T00:49:39.163Z,42.20
2018-03-06T00:50:11.092Z,42.40
2018-03-06T00:50:43.032Z,42.10
2018-03-06T00:51:15.002Z,42.50
2018-03-06T00:51:46.944Z,41.80
2018-03-06T00:52:18.897Z,41.70
2018-03-06T00:52:50.936Z,42.00
2018-03-06T00:53:22.919Z,42.20
2018-03-06T00:53:55.653Z,42.30
2018-03-06T00:54:27.634Z,42.20
2018-03-06T00:54:59.571Z,42.00
2018-03-06T00:55:31.514Z,42.20
2018-03-06T00:56:03.474Z,42.00
2018-03-06T00:56:35.429Z,42.00
2018-03-06T00:57:08.144Z,42.10
2018-03-06T00:57:40.103Z,42.10
2018-03-06T00:58:12.052Z,42.00
2018-03-06T00:58:43.996Z,42.20
2018-03-06T00:59:15.975Z,41.90
2018-03-06T00:59:47.930Z,42.20
2018-03-06T01:00:19.866Z,42.20
2018-03-06T01:00:51.816Z,42.20
2018-03-06T01:01:23.588Z,42.50
2018-03-06T01:01:56.336Z,42.20
2018-03-06T01:02:28.276Z,42.20
2018-03-06T01:03:00.224Z,42.10
2018-03-06T01:03:32.186Z,42.00
2018-03-06T01:04:04.133Z,41.80
2018-03-06T01:04:36.079Z,41.80
2018-03-06T01:05:08.046Z,41.90
2018-03-06T01:05:39.980Z,42.00
2018-03-06T01:06:11.927Z,42.20
2018-03-06T01:06:43.884Z,42.00
2018-03-06T01:07:15.821Z,41.90
2018-03-06T01:07:47.797Z,41.90
2018-03-06T01:08:20.558Z,42.10
2018-03-06T01:08:52.471Z,42.10
2018-03-06T01:09:24.443Z,41.90
2018-03-06T01:09:56.387Z,41.90
2018-03-06T01:10:28.332Z,41.90
2018-03-06T01:11:00.303Z,41.80
2018-03-06T01:11:32.234Z,41.90
2018-03-06T01:12:04.190Z,42.00
2018-03-06T01:12:36.124Z,41.60
2018-03-06T01:13:08.064Z,41.80
2018-03-06T01:13:40.043Z,41.80
2018-03-06T01:14:12.005Z,42.10
2018-03-06T01:14:43.934Z,41.90
2018-03-06T01:15:16.905Z,41.60
2018-03-06T01:15:48.847Z,41.60
2018-03-06T01:16:20.778Z,41.70
2018-03-06T01:16:52.733Z,42.30
2018-03-06T01:17:24.481Z,41.80
2018-03-06T01:17:57.226Z,41.80
2018-03-06T01:18:29.759Z,41.90
2018-03-06T01:19:01.730Z,41.80
2018-03-06T01:19:33.657Z,41.50
2018-03-06T01:20:05.611Z,41.50
2018-03-06T01:20:37.561Z,41.80
2018-03-06T01:21:09.511Z,41.70
2018-03-06T01:21:41.463Z,41.50
2018-03-06T01:22:13.409Z,41.50
2018-03-06T01:22:45.378Z,41.90
2018-03-06T01:23:17.322Z,41.90
2018-03-06T01:23:49.319Z,41.70
2018-03-06T01:24:22.040Z,41.80
2018-03-06T01:24:53.964Z,41.70
2018-03-06T01:25:25.917Z,41.70
2018-03-06T01:25:57.870Z,41.80
2018-03-06T01:26:29.821Z,41.60
2018-03-06T01:27:01.762Z,41.70
2018-03-06T01:27:33.796Z,41.80
2018-03-06T01:28:05.753Z,41.80
2018-03-06T01:28:37.488Z,41.80
2018-03-06T01:29:09.441Z,41.70
2018-03-06T01:29:41.445Z,41.60
2018-03-06T01:30:13.390Z,41.50
2018-03-06T01:30:45.381Z,41.90
2018-03-06T01:31:17.334Z,41.90
2018-03-06T01:31:49.261Z,41.70
2018-03-06T01:32:21.217Z,41.70
2018-03-06T01:32:53.946Z,41.70
2018-03-06T01:33:25.896Z,41.70
2018-03-06T01:33:57.840Z,41.70
2018-03-06T01:34:29.795Z,41.80
2018-03-06T01:35:01.752Z,41.70
2018-03-06T01:35:33.747Z,41.80
2018-03-06T01:36:05.710Z,41.60
2018-03-06T01:36:37.648Z,41.80
2018-03-06T01:37:09.429Z,41.60
2018-03-06T01:37:41.403Z,41.80
2018-03-06T01:38:13.342Z,41.60
2018-03-06T01:38:45.288Z,41.90
2018-03-06T01:39:17.230Z,41.90
2018-03-06T01:39:49.211Z,41.70
2018-03-06T01:40:21.937Z,41.60
2018-03-06T01:40:53.875Z,41.50
2018-03-06T01:41:25.880Z,41.60
2018-03-06T01:41:58.611Z,41.70
2018-03-06T01:42:30.568Z,41.70
2018-03-06T01:43:02.317Z,41.60
2018-03-06T01:43:34.274Z,41.50
2018-03-06T01:44:06.225Z,41.50
2018-03-06T01:44:38.932Z,41.60
2018-03-06T01:45:10.877Z,41.60
2018-03-06T01:45:42.833Z,41.40
2018-03-06T01:46:14.760Z,41.50
2018-03-06T01:46:46.707Z,41.70
2018-03-06T01:47:19.431Z,41.70
2018-03-06T01:47:51.399Z,41.70
2018-03-06T01:48:23.339Z,41.60
2018-03-06T01:48:55.285Z,41.50
2018-03-06T01:49:27.232Z,41.40
2018-03-06T01:49:59.183Z,41.20
2018-03-06T01:50:31.164Z,41.20
2018-03-06T01:51:03.114Z,41.50
2018-03-06T01:51:35.832Z,41.40
2018-03-06T01:52:07.777Z,41.40
2018-03-06T01:52:39.723Z,41.30
2018-03-06T01:53:11.670Z,41.20
2018-03-06T01:53:43.625Z,41.40
2018-03-06T01:54:15.606Z,41.20
2018-03-06T01:54:47.556Z,41.50
2018-03-06T01:55:19.507Z,41.50
2018-03-06T01:55:52.276Z,41.40
2018-03-06T01:56:24.220Z,41.50
2018-03-06T01:56:56.160Z,41.40
2018-03-06T01:57:28.110Z,41.40
2018-03-06T01:58:00.060Z,41.40
2018-03-06T01:58:32.028Z,41.20
2018-03-06T01:59:04.750Z,41.40
2018-03-06T01:59:36.741Z,41.20
2018-03-06T02:00:08.504Z,41.20
2018-03-06T02:00:41.205Z,41.20
2018-03-06T02:01:13.158Z,41.20
2018-03-06T02:01:44.902Z,41.00
2018-03-06T02:02:16.859Z,41.20
2018-03-06T02:02:48.812Z,41.30
2018-03-06T02:03:20.774Z,41.00
2018-03-06T02:03:52.725Z,41.10
2018-03-06T02:04:24.688Z,41.30
2018-03-06T02:04:56.638Z,41.10
2018-03-06T02:05:28.594Z,41.20
2018-03-06T02:06:00.546Z,41.40
2018-03-06T02:06:32.486Z,41.40
2018-03-06T02:07:05.201Z,41.60
2018-03-06T02:07:37.141Z,41.50
2018-03-06T02:08:09.090Z,41.20
2018-03-06T02:08:40.842Z,41.30
2018-03-06T02:09:12.797Z,41.50
2018-03-06T02:09:44.751Z,41.50
2018-03-06T02:10:16.698Z,41.40
2018-03-06T02:10:48.643Z,41.40
2018-03-06T02:11:20.596Z,41.30
2018-03-06T02:11:52.555Z,41.40
2018-03-06T02:12:24.538Z,41.30
2018-03-06T02:12:57.261Z,41.30
2018-03-06T02:13:29.212Z,41.30
2018-03-06T02:14:01.165Z,41.20
2018-03-06T02:14:33.113Z,41.30
2018-03-06T02:15:05.064Z,41.20
2018-03-06T02:15:37.019Z,41.20
2018-03-06T02:16:08.960Z,41.20
2018-03-06T02:16:40.925Z,41.30
2018-03-06T02:17:12.681Z,41.30
2018-03-06T02:17:44.638Z,41.40
2018-03-06T02:18:16.614Z,41.20
2018-03-06T02:18:49.306Z,41.20
2018-03-06T02:19:21.265Z,41.20
2018-03-06T02:19:53.249Z,41.30
2018-03-06T02:20:25.184Z,41.40
2018-03-06T02:20:57.133Z,41.50
2018-03-06T02:21:29.087Z,41.30
2018-03-06T02:22:01.045Z,41.40
2018-03-06T02:22:33.038Z,41.50
2018-03-06T02:23:04.990Z,41.20
2018-03-06T02:23:36.939Z,41.20
2018-03-06T02:24:08.916Z,41.40
2018-03-06T02:24:40.895Z,41.20
2018-03-06T02:25:12.851Z,41.20
2018-03-06T02:25:45.609Z,41.10
2018-03-06T02:26:17.568Z,41.10
2018-03-06T02:26:49.526Z,41.10
2018-03-06T02:27:22.273Z,41.00
2018-03-06T02:27:54.209Z,41.00
2018-03-06T02:28:26.204Z,41.00
2018-03-06T02:28:58.923Z,40.80
2018-03-06T02:29:30.869Z,40.80
2018-03-06T02:30:02.841Z,40.80
2018-03-06T02:30:34.762Z,41.00
2018-03-06T02:31:06.715Z,40.90
2018-03-06T02:31:38.676Z,40.90
2018-03-06T02:32:10.633Z,40.80
2018-03-06T02:32:42.592Z,41.00
2018-03-06T02:33:14.597Z,41.00
2018-03-06T02:33:46.423Z,41.20
2018-03-06T02:34:18.560Z,41.30
2018-03-06T02:34:51.380Z,41.20
2018-03-06T02:35:23.553Z,41.20
2018-03-06T02:35:55.582Z,41.40
2018-03-06T02:36:27.532Z,41.10
2018-03-06T02:36:59.720Z,41.00
2018-03-06T02:37:31.879Z,41.30
2018-03-06T02:38:05.315Z,41.10
2018-03-06T02:38:37.901Z,41.10
2018-03-06T02:39:10.804Z,41.10
2018-03-06T02:39:44.178Z,40.90
2018-03-06T02:40:15.957Z,41.10
2018-03-06T02:40:48.664Z,41.10
2018-03-06T02:41:20.620Z,41.00
2018-03-06T02:41:52.601Z,41.10
2018-03-06T02:42:25.347Z,40.70
2018-03-06T02:42:57.307Z,40.70
2018-03-06T02:43:29.260Z,40.70
2018-03-06T02:44:02.061Z,40.80
2018-03-06T02:44:34.036Z,40.70
2018-03-06T02:45:05.980Z,40.70
2018-03-06T02:45:37.912Z,40.80
2018-03-06T02:46:09.890Z,40.80
2018-03-06T02:46:41.825Z,41.00
2018-03-06T02:47:13.799Z,41.00
2018-03-06T02:47:45.720Z,41.00
2018-03-06T02:48:17.671Z,41.00
2018-03-06T02:48:49.622Z,41.10
2018-03-06T02:49:21.564Z,40.80
2018-03-06T02:49:53.519Z,40.80
2018-03-06T02:50:25.476Z,40.80
2018-03-06T02:50:57.446Z,41.00
2018-03-06T02:51:29.413Z,40.80
2018-03-06T02:52:01.370Z,40.70
2018-03-06T02:52:33.907Z,40.90
2018-03-06T02:53:05.866Z,40.90
2018-03-06T02:53:37.819Z,40.80
2018-03-06T02:54:09.764Z,40.90
2018-03-06T02:54:41.735Z,40.80
2018-03-06T02:55:14.493Z,40.90
2018-03-06T02:55:46.437Z,40.80
2018-03-06T02:56:18.405Z,40.70
2018-03-06T02:56:51.100Z,40.80
2018-03-06T02:57:23.069Z,40.60
2018-03-06T02:57:55.036Z,40.60
2018-03-06T02:58:27.001Z,40.50
2018-03-06T02:58:58.958Z,40.50
2018-03-06T02:59:30.904Z,40.50
2018-03-06T03:00:03.634Z,40.60
2018-03-06T03:00:35.591Z,40.50
2018-03-06T03:01:07.549Z,40.70
2018-03-06T03:01:39.496Z,40.50
2018-03-06T03:02:11.438Z,40.30
2018-03-06T03:02:43.377Z,40.30
2018-03-06T03:03:15.314Z,40.70
2018-03-06T03:03:47.262Z,40.40
2018-03-06T03:04:19.215Z,40.30
2018-03-06T03:04:51.160Z,40.20
2018-03-06T03:05:23.119Z,40.40
2018-03-06T03:05:55.068Z,40.20
2018-03-06T03:06:27.014Z,40.40
2018-03-06T03:06:58.963Z,40.50
2018-03-06T03:07:30.911Z,40.40
2018-03-06T03:08:02.858Z,40.30
2018-03-06T03:08:34.803Z,40.50
2018-03-06T03:09:06.746Z,40.10
2018-03-06T03:09:38.719Z,40.10
2018-03-06T03:10:10.667Z,40.20
2018-03-06T03:10:42.602Z,40.20
2018-03-06T03:11:14.591Z,40.30
2018-03-06T03:11:46.640Z,40.40
2018-03-06T03:12:18.593Z,40.50
2018-03-06T03:12:50.549Z,40.20
2018-03-06T03:13:22.489Z,40.40
2018-03-06T03:13:54.462Z,40.40
2018-03-06T03:14:27.162Z,40.30
2018-03-06T03:14:59.095Z,40.30
2018-03-06T03:15:31.042Z,40.00
2018-03-06T03:16:02.997Z,40.30
2018-03-06T03:16:35.727Z,40.30
2018-03-06T03:17:07.718Z,40.30
2018-03-06T03:17:39.653Z,40.20
2018-03-06T03:18:11.605Z,40.10
2018-03-06T03:18:43.548Z,40.20
2018-03-06T03:19:16.249Z,40.00
2018-03-06T03:19:48.185Z,40.10
2018-03-06T03:20:20.135Z,40.00
2018-03-06T03:20:52.087Z,40.10
2018-03-06T03:21:24.035Z,40.40
2018-03-06T03:21:55.995Z,40.50
2018-03-06T03:22:27.936Z,40.40
2018-03-06T03:22:59.909Z,40.30
2018-03-06T03:23:31.835Z,40.50
2018-03-06T03:24:03.789Z,40.70
2018-03-06T03:24:35.753Z,40.40
2018-03-06T03:25:07.698Z,40.20
2018-03-06T03:25:39.648Z,40.10
2018-03-06T03:26:11.611Z,40.10
2018-03-06T03:26:43.559Z,40.30
2018-03-06T03:27:15.563Z,40.40
2018-03-06T03:27:48.078Z,40.40
2018-03-06T03:28:20.024Z,40.20
2018-03-06T03:28:52.103Z,40.30
2018-03-06T03:29:24.125Z,40.30
2018-03-06T03:29:56.061Z,40.20
2018-03-06T03:30:28.000Z,39.90
2018-03-06T03:30:59.936Z,40.00
2018-03-06T03:31:32.150Z,40.10
2018-03-06T03:32:04.191Z,40.20
2018-03-06T03:32:36.156Z,40.40
2018-03-06T03:33:08.092Z,40.30
2018-03-06T03:33:40.048Z,40.20
2018-03-06T03:34:11.976Z,40.00
2018-03-06T03:34:43.917Z,39.90
2018-03-06T03:35:15.866Z,40.00
2018-03-06T03:35:47.823Z,39.80
2018-03-06T03:36:19.852Z,40.00
2018-03-06T03:36:51.572Z,39.80
2018-03-06T03:37:23.526Z,39.80
2018-03-06T03:37:55.489Z,40.00
2018-03-06T03:38:27.446Z,40.20
2018-03-06T03:38:59.389Z,39.90
2018-03-06T03:39:31.332Z,39.90
2018-03-06T03:40:03.283Z,40.10
2018-03-06T03:40:35.236Z,40.20
2018-03-06T03:41:07.165Z,40.10
2018-03-06T03:41:39.111Z,39.90
2018-03-06T03:42:11.088Z,40.40
2018-03-06T03:42:43.029Z,39.90
2018-03-06T03:43:15.020Z,39.90
2018-03-06T03:43:46.969Z,40.00
2018-03-06T03:44:18.915Z,39.90
2018-03-06T03:44:51.174Z,40.10
2018-03-06T03:45:23.110Z,39.90
2018-03-06T03:45:55.057Z,39.80
2018-03-06T03:46:27.029Z,39.80
2018-03-06T03:46:58.963Z,40.00
2018-03-06T03:47:30.896Z,40.10
2018-03-06T03:48:02.841Z,39.80
2018-03-06T03:48:34.776Z,39.60
2018-03-06T03:49:06.724Z,39.90
2018-03-06T03:49:38.673Z,39.90
2018-03-06T03:50:10.623Z,39.90
2018-03-06T03:50:42.602Z,40.00
2018-03-06T03:51:14.547Z,40.00
2018-03-06T03:51:46.508Z,40.00
2018-03-06T03:52:18.475Z,39.90
2018-03-06T03:52:50.424Z,39.90
2018-03-06T03:53:22.362Z,40.00
2018-03-06T03:53:54.295Z,39.90
2018-03-06T03:54:26.244Z,39.80
2018-03-06T03:54:58.213Z,39.90
2018-03-06T03:55:30.153Z,40.00
2018-03-06T03:56:02.090Z,39.90
2018-03-06T03:56:34.033Z,39.90
2018-03-06T03:57:05.991Z,40.00
2018-03-06T03:57:37.960Z,39.90
2018-03-06T03:58:09.883Z,39.90
2018-03-06T03:58:41.842Z,40.00
2018-03-06T03:59:13.630Z,40.10
2018-03-06T03:59:46.344Z,40.00
2018-03-06T04:00:18.297Z,40.10
2018-03-06T04:00:50.254Z,39.80
2018-03-06T04:01:22.196Z,39.90
2018-03-06T04:01:54.158Z,39.90
2018-03-06T04:02:26.103Z,40.00
2018-03-06T04:02:58.061Z,40.00
2018-03-06T04:03:30.035Z,39.80
2018-03-06T04:04:02.755Z,39.70
2018-03-06T04:04:34.724Z,39.80
2018-03-06T04:05:06.666Z,40.00
2018-03-06T04:05:38.603Z,39.90
2018-03-06T04:06:10.557Z,39.80
2018-03-06T04:06:42.520Z,39.90
2018-03-06T04:07:14.465Z,40.00
2018-03-06T04:07:46.420Z,39.90
2018-03-06T04:08:18.360Z,40.00
2018-03-06T04:08:50.119Z,39.60
2018-03-06T04:09:22.064Z,39.80
2018-03-06T04:09:54.054Z,39.60
2018-03-06T04:10:25.995Z,39.50
2018-03-06T04:10:57.955Z,39.50
2018-03-06T04:11:29.917Z,39.70
2018-03-06T04:12:01.844Z,39.50
2018-03-06T04:12:33.804Z,39.40
2018-03-06T04:13:05.787Z,39.70
2018-03-06T04:13:38.500Z,39.60
2018-03-06T04:14:10.467Z,39.60
2018-03-06T04:14:42.419Z,39.50
2018-03-06T04:15:14.361Z,39.60
2018-03-06T04:15:46.325Z,39.60
2018-03-06T04:16:18.239Z,39.50
2018-03-06T04:16:50.200Z,39.60
2018-03-06T04:17:22.153Z,39.50
2018-03-06T04:17:54.136Z,39.50
2018-03-06T04:18:26.089Z,39.50
2018-03-06T04:18:58.826Z,39.60
2018-03-06T04:19:30.789Z,39.50
2018-03-06T04:20:02.579Z,39.80
2018-03-06T04:20:35.279Z,39.40
2018-03-06T04:21:07.234Z,39.30
2018-03-06T04:21:39.193Z,39.40
2018-03-06T04:22:11.128Z,39.40
2018-03-06T04:22:43.098Z,39.60
2018-03-06T04:23:15.052Z,39.50
2018-03-06T04:23:47.010Z,39.50
2018-03-06T04:24:19.723Z,39.60
2018-03-06T04:24:51.673Z,39.60
2018-03-06T04:25:23.891Z,39.60
2018-03-06T04:25:55.848Z,39.90
2018-03-06T04:26:27.598Z,39.70
2018-03-06T04:27:00.305Z,39.60
2018-03-06T04:27:32.265Z,39.50
2018-03-06T04:28:04.228Z,39.80
2018-03-06T04:28:36.152Z,39.50
2018-03-06T04:29:08.219Z,39.60
2018-03-06T04:29:40.173Z,39.50
2018-03-06T04:30:12.158Z,39.50
2018-03-06T04:30:44.855Z,39.40
2018-03-06T04:31:16.799Z,39.40
2018-03-06T04:31:48.786Z,39.50
2018-03-06T04:32:20.722Z,39.40
2018-03-06T04:32:52.690Z,39.50
2018-03-06T04:33:24.659Z,39.30
2018-03-06T04:33:57.168Z,39.60
2018-03-06T04:34:29.112Z,39.50
2018-03-06T04:35:01.110Z,39.60
2018-03-06T04:35:33.040Z,39.40
2018-03-06T04:36:05.019Z,39.30
2018-03-06T04:36:36.952Z,39.30
2018-03-06T04:37:08.912Z,39.20
2018-03-06T04:37:40.843Z,39.20
2018-03-06T04:38:12.817Z,39.20
2018-03-06T04:38:44.739Z,39.50
2018-03-06T04:39:16.700Z,39.30
2018-03-06T04:39:49.416Z,39.30
2018-03-06T04:40:21.392Z,39.20
2018-03-06T04:40:53.349Z,39.30
2018-03-06T04:41:25.305Z,39.20
2018-03-06T04:41:57.292Z,39.20
2018-03-06T04:42:29.797Z,39.30
2018-03-06T04:43:01.747Z,39.30
2018-03-06T04:43:33.678Z,39.30
2018-03-06T04:44:05.636Z,39.20
2018-03-06T04:44:37.592Z,39.40
2018-03-06T04:45:09.561Z,39.40
2018-03-06T04:45:41.513Z,39.80
2018-03-06T04:46:13.499Z,39.10
2018-03-06T04:46:45.484Z,39.20
2018-03-06T04:47:17.441Z,39.10
2018-03-06T04:47:49.184Z,39.20
2018-03-06T04:48:21.157Z,39.20
2018-03-06T04:48:53.089Z,39.60
2018-03-06T04:49:25.076Z,39.40
2018-03-06T04:49:57.005Z,39.40
2018-03-06T04:50:28.952Z,39.40
2018-03-06T04:51:00.926Z,39.20
2018-03-06T04:51:33.648Z,39.20
2018-03-06T04:52:05.602Z,39.20
2018-03-06T04:52:37.564Z,39.30
2018-03-06T04:53:09.500Z,39.40
2018-03-06T04:53:41.472Z,39.30
2018-03-06T04:54:13.410Z,39.20
2018-03-06T04:54:45.462Z,39.20
2018-03-06T04:55:17.440Z,39.40
2018-03-06T04:55:50.165Z,39.30
2018-03-06T04:56:22.096Z,39.30
2018-03-06T04:56:54.067Z,39.40
2018-03-06T04:57:26.016Z,39.10
2018-03-06T04:57:57.977Z,39.00
2018-03-06T04:58:30.216Z,39.30
2018-03-06T04:59:01.960Z,39.00
2018-03-06T04:59:33.925Z,39.10
2018-03-06T05:00:05.907Z,39.10
2018-03-06T05:00:38.634Z,39.00
2018-03-06T05:01:10.581Z,39.00
2018-03-06T05:01:42.528Z,39.50
2018-03-06T05:02:14.518Z,39.40
2018-03-06T05:02:47.236Z,39.40
2018-03-06T05:03:19.206Z,39.30
2018-03-06T05:03:51.149Z,39.30
2018-03-06T05:04:23.097Z,39.00
2018-03-06T05:04:55.056Z,38.90
2018-03-06T05:05:27.021Z,39.30
2018-03-06T05:05:58.962Z,39.50
2018-03-06T05:06:30.926Z,39.50
2018-03-06T05:07:03.646Z,39.30
2018-03-06T05:07:35.631Z,39.30
2018-03-06T05:08:07.558Z,39.20
2018-03-06T05:08:39.519Z,39.20
2018-03-06T05:09:11.456Z,39.20
2018-03-06T05:09:43.426Z,39.30
2018-03-06T05:10:15.392Z,39.10
2018-03-06T05:10:48.100Z,39.30
2018-03-06T05:11:19.870Z,39.30
2018-03-06T05:11:51.810Z,39.20
2018-03-06T05:12:23.759Z,39.30
2018-03-06T05:12:55.704Z,39.10
2018-03-06T05:13:27.652Z,39.00
2018-03-06T05:13:59.618Z,39.10
2018-03-06T05:14:31.569Z,39.20
2018-03-06T05:15:03.514Z,38.90
2018-03-06T05:15:35.473Z,39.00
2018-03-06T05:16:07.431Z,39.00
2018-03-06T05:16:39.404Z,38.90
2018-03-06T05:17:12.149Z,40.00
2018-03-06T05:17:44.102Z,40.00
2018-03-06T05:18:16.068Z,41.00
2018-03-06T05:18:47.821Z,42.00
2018-03-06T05:19:19.744Z,42.50
2018-03-06T05:19:51.718Z,42.50
2018-03-06T05:20:24.430Z,42.60
2018-03-06T05:20:56.381Z,42.60
2018-03-06T05:21:28.344Z,42.40
2018-03-06T05:22:00.296Z,42.40
2018-03-06T05:22:32.280Z,42.40
2018-03-06T05:23:04.783Z,42.20
2018-03-06T05:23:36.758Z,42.20
2018-03-06T05:24:08.712Z,42.20
2018-03-06T05:24:40.642Z,42.20
2018-03-06T05:25:12.628Z,42.20
2018-03-06T05:25:45.332Z,42.20
2018-03-06T05:26:17.272Z,42.20
2018-03-06T05:26:49.284Z,42.80
2018-03-06T05:27:21.192Z,43.10
2018-03-06T05:27:53.239Z,42.50
2018-03-06T05:28:25.206Z,42.80
2018-03-06T05:28:57.178Z,42.90
2018-03-06T05:29:28.941Z,42.60
2018-03-06T05:30:00.901Z,42.30
2018-03-06T05:30:33.611Z,41.60
2018-03-06T05:31:05.554Z,41.60
2018-03-06T05:31:37.490Z,41.40
2018-03-06T05:32:09.451Z,41.10
2018-03-06T05:32:41.370Z,41.00
2018-03-06T05:33:13.312Z,41.00
2018-03-06T05:33:46.030Z,40.70
2018-03-06T05:34:17.983Z,40.70
2018-03-06T05:34:49.919Z,40.80
2018-03-06T05:35:21.869Z,40.50
2018-03-06T05:35:53.812Z,40.40
2018-03-06T05:36:25.759Z,40.30
2018-03-06T05:36:57.722Z,40.20
2018-03-06T05:37:29.658Z,40.10
2018-03-06T05:38:01.678Z,40.00
2018-03-06T05:38:33.604Z,40.00
2018-03-06T05:39:05.567Z,40.20
2018-03-06T05:39:38.291Z,40.10
2018-03-06T05:40:10.253Z,40.10
2018-03-06T05:40:42.287Z,40.10
2018-03-06T05:41:14.222Z,40.00
2018-03-06T05:41:46.173Z,40.10
2018-03-06T05:42:18.112Z,40.00
2018-03-06T05:42:50.059Z,40.00
2018-03-06T05:43:22.016Z,40.20
2018-03-06T05:43:53.996Z,40.80
2018-03-06T05:44:25.931Z,40.20
2018-03-06T05:44:57.855Z,43.30
2018-03-06T05:45:29.831Z,41.80
2018-03-06T05:46:01.821Z,42.90
2018-03-06T05:46:34.543Z,44.90
2018-03-06T05:47:06.485Z,44.80
2018-03-06T05:47:38.439Z,48.90
2018-03-06T05:48:10.370Z,45.70
2018-03-06T05:48:42.319Z,43.10
2018-03-06T05:49:14.259Z,46.90
2018-03-06T05:49:46.205Z,46.60
2018-03-06T05:50:18.137Z,43.70
2018-03-06T05:50:50.870Z,41.90
2018-03-06T05:51:22.809Z,41.90
2018-03-06T05:51:54.764Z,42.20
2018-03-06T05:52:26.701Z,43.30
2018-03-06T05:52:58.653Z,43.10
2018-03-06T05:53:30.606Z,42.90
2018-03-06T05:54:02.569Z,42.40
2018-03-06T05:54:34.527Z,42.40
2018-03-06T05:55:06.272Z,41.80
2018-03-06T05:55:38.222Z,41.60
2018-03-06T05:56:10.166Z,41.60
2018-03-06T05:56:42.121Z,42.30
2018-03-06T05:57:14.067Z,42.30
2018-03-06T05:57:46.010Z,41.20
2018-03-06T05:58:17.955Z,40.90
2018-03-06T05:58:49.909Z,41.50
2018-03-06T05:59:21.860Z,41.50
2018-03-06T05:59:53.810Z,41.50
2018-03-06T06:00:25.763Z,40.80
2018-03-06T06:00:57.713Z,41.70
2018-03-06T06:01:29.648Z,41.30
2018-03-06T06:02:01.591Z,40.60
2018-03-06T06:02:33.532Z,41.20
2018-03-06T06:03:05.484Z,41.00
2018-03-06T06:03:37.434Z,41.70
2018-03-06T06:04:09.177Z,40.60
2018-03-06T06:04:41.769Z,40.20
2018-03-06T06:05:13.510Z,40.80
2018-03-06T06:05:45.458Z,40.50
2018-03-06T06:06:17.411Z,41.10
2018-03-06T06:06:49.363Z,40.80
2018-03-06T06:07:21.296Z,41.40
2018-03-06T06:07:53.244Z,41.10
2018-03-06T06:08:25.215Z,40.40
2018-03-06T06:08:57.164Z,40.80
2018-03-06T06:09:29.101Z,40.90
2018-03-06T06:10:01.045Z,40.60
2018-03-06T06:10:33.007Z,40.70
2018-03-06T06:11:04.942Z,40.50
2018-03-06T06:11:36.898Z,40.80
2018-03-06T06:12:08.856Z,40.50
2018-03-06T06:12:40.817Z,40.60
2018-03-06T06:13:12.728Z,40.70
2018-03-06T06:13:44.693Z,40.70
2018-03-06T06:14:16.457Z,40.70
2018-03-06T06:14:49.167Z,40.90
2018-03-06T06:15:20.906Z,40.80
2018-03-06T06:15:52.849Z,40.70
2018-03-06T06:16:24.617Z,41.00
2018-03-06T06:16:56.388Z,40.60
2018-03-06T06:17:28.125Z,40.80
2018-03-06T06:17:59.882Z,40.60
2018-03-06T06:18:31.628Z,42.00
2018-03-06T06:19:03.375Z,41.30
2018-03-06T06:19:35.140Z,41.20
2018-03-06T06:20:07.661Z,40.90
2018-03-06T06:20:39.401Z,40.90
2018-03-06T06:21:11.169Z,41.10
2018-03-06T06:21:43.104Z,41.30
2018-03-06T06:22:14.847Z,41.60
2018-03-06T06:22:46.682Z,41.00
2018-03-06T06:23:18.435Z,41.00
2018-03-06T06:23:50.179Z,41.10
2018-03-06T06:24:21.917Z,41.30
2018-03-06T06:24:53.669Z,41.20
2018-03-06T06:25:25.410Z,41.00
2018-03-06T06:25:57.160Z,41.10
2018-03-06T06:26:29.123Z,41.10
2018-03-06T06:27:00.856Z,41.00
2018-03-06T06:27:32.603Z,41.20
2018-03-06T06:28:04.327Z,41.40
2018-03-06T06:28:36.073Z,41.30
2018-03-06T06:29:07.821Z,41.40
2018-03-06T06:29:39.552Z,42.20
2018-03-06T06:30:11.293Z,41.30
2018-03-06T06:30:43.069Z,41.20
2018-03-06T06:31:14.838Z,41.00
2018-03-06T06:31:47.403Z,41.50
2018-03-06T06:32:20.112Z,41.00
2018-03-06T06:32:51.872Z,41.10
2018-03-06T06:33:23.638Z,41.40
2018-03-06T06:33:55.368Z,41.10
2018-03-06T06:34:27.117Z,41.00
2018-03-06T06:34:58.855Z,41.10
2018-03-06T06:35:30.605Z,41.00
2018-03-06T06:36:02.351Z,41.20
2018-03-06T06:36:34.087Z,41.20
2018-03-06T06:37:06.036Z,41.80
2018-03-06T06:37:37.776Z,41.10
2018-03-06T06:38:09.520Z,41.00
2018-03-06T06:38:41.265Z,40.90
2018-03-06T06:39:13.076Z,41.20
2018-03-06T06:39:45.032Z,40.90
2018-03-06T06:40:16.773Z,41.90
2018-03-06T06:40:48.516Z,41.80
2018-03-06T06:41:20.270Z,41.60
2018-03-06T06:41:52.023Z,41.60
2018-03-06T06:42:23.785Z,41.20
2018-03-06T06:42:55.784Z,41.00
2018-03-06T06:43:28.279Z,41.10
2018-03-06T06:44:00.256Z,41.10
2018-03-06T06:44:32.007Z,41.50
2018-03-06T06:45:03.736Z,41.10
2018-03-06T06:45:35.525Z,41.50
2018-03-06T06:46:07.366Z,41.00
2018-03-06T06:46:39.070Z,40.90
2018-03-06T06:47:10.809Z,41.50
2018-03-06T06:47:42.566Z,41.10
2018-03-06T06:48:14.314Z,41.00
2018-03-06T06:48:46.259Z,41.00
2018-03-06T06:49:18.010Z,40.90
2018-03-06T06:49:49.756Z,40.90
2018-03-06T06:50:21.499Z,40.70
2018-03-06T06:50:53.262Z,41.90
2018-03-06T06:51:25.025Z,41.60
2018-03-06T06:51:57.530Z,42.70
2018-03-06T06:52:29.325Z,42.60